Flight Track Log - Related Links

Times and Time Zones

All times are in EDT time to prevent confusion due to time zone crossing. See the TAM3764 flight status page for this flight to view local times or setup timezone preferences in your user account.

Time Position Orientation Groundspeed Altitude Reporting Facility
EDT Latitude Longitude Course Direction KTS MPH feet Rate Location/Type
Tue 07:39:00 PM -23.5643 -47.7948 95° East  Level Estimated
Tue 07:40:00 PM -23.5699 -47.6994 94° East  Level Estimated
Tue 07:41:00 PM -23.5753 -47.6039 94° East  Level Estimated
Tue 07:42:00 PM -23.5808 -47.5084 94° East  Level Estimated
Tue 07:43:00 PM -23.5861 -47.4130 94° East  Level Estimated
Tue 07:44:00 PM -23.5915 -47.3175 93° East  Level Estimated
Tue 07:45:00 PM -23.5967 -47.2220 93° East  Level Estimated
Tue 07:46:00 PM -23.6019 -47.1265 93° East  Level Estimated
Tue 07:47:00 PM -23.6071 -47.0310 93° East  Level Estimated
Tue 07:48:00 PM -23.6121 -46.9355 93° East  Level Estimated
Tue 07:49:00 PM -23.6172 -46.8399 93° East  Level Estimated
Tue 07:50:00 PM -23.6221 -46.7444 93° East  Level Estimated
Tue 07:51:00 PM -23.6267 -46.6554 93° East  Level Estimated
Tue 07:52:00 PM -23.6267 -46.6554 114° Southeast  Level Estimated
Tue 07:53:00 PM -23.6267 -46.6554 114° Southeast  Level Estimated
Tue 07:54:00 PM -23.6267 -46.6554 114° Southeast  Level Estimated
Tue 07:55:00 PM -23.6267 -46.6554 114° Southeast  Level Estimated
Tue 07:56:00 PM -23.6267 -46.6554 114° Southeast  Level Estimated
Tue 07:57:00 PM -23.6267 -46.6554 114° Southeast  Level Estimated
Tue 07:58:00 PM -23.6267 -46.6554 114° Southeast  Level Estimated
Tue 07:59:00 PM -23.6267 -46.6554 114° Southeast  Level Estimated
Tue 08:00:00 PM -23.6267 -46.6554 114° Southeast  Level Estimated
Tue 08:01:00 PM -23.6267 -46.6554 114° Southeast  Level Estimated
Tue 08:02:00 PM -23.6267 -46.6554 114° Southeast  Level Estimated
Tue 08:03:00 PM -23.6267 -46.6554 114° Southeast  Level Estimated
Tue 08:04:00 PM -23.6267 -46.6554 114° Southeast  Level Estimated
Tue 08:05:00 PM -23.6267 -46.6554 114° Southeast  Level Estimated
Tue 08:06:00 PM -23.6267 -46.6554 114° Southeast  Level Estimated
Tue 08:07:00 PM -23.6267 -46.6554 114° Southeast  Level Estimated

Login

Don't have an account? Register now (free) for customized features, flight alerts, and more!